Weather at Orangeville/Rosehill Airfield

Public forecast

Using degrees Celsius for public forecast. Weather courtesy of forecast.io.

Closest aviation weather report (METAR) to Orangeville/Rosehill Airfield

Closest report is Toronto Lester B. Pearson International Airport, 21.7 nm (40.3 km) SE.

2024/05/24 01:00 (retrieved 1 hour ago)

CYYZ 240100Z 28009KT 15SM FEW080 21/07 A2984 RMK AC2 SLP106 DENSITY ALT 1600FT

Closest aviation forecast (TAF) to Orangeville/Rosehill Airfield

Forecast is more than 6 hours old.

Closest forecast is Niagara District Airport, 56.5 nm (104.7 km) SE.

2024/05/23 20:00 (retrieved 6 hours ago)

TAF CYSN 231940Z 2320/2401 23012G22KT P6SM FEW060 SCT230 BECMG 2322/2324 22012KT RMK NXT FCST BY 241300Z